Flight Track Log - Related Links

Times and Time Zones

All times are in EST time to prevent confusion due to time zone crossing. See the N6344Y flight status page for this flight to view local times or setup timezone preferences in your user account.

Time Position Orientation Groundspeed Altitude Reporting Facility
EST Latitude Longitude Course Direction KTS MPH feet Rate Location/Type
Fri 01:36:59 PM 27.1994 -80.2756 275° West 126 145 1,200  Level Miami Center
Fri 01:37:59 PM 27.2028 -80.3153 275° West 120 138 1,900 650 Climbing Miami Center
Fri 01:38:59 PM 27.2061 -80.3506 276° West 120 138 2,500 550 Climbing Miami Center
Fri 01:39:59 PM 27.2094 -80.3881 276° West 120 138 3,000 500 Climbing Miami Center
Fri 01:40:59 PM 27.2128 -80.4231 276° West 120 138 3,500 500 Climbing Miami Center
Fri 01:41:59 PM 27.2222 -80.4583 287° West 120 138 4,000 600 Climbing Miami Center
Fri 01:42:59 PM 27.2556 -80.4642 351° North 98 113 4,700 350 Climbing Miami Center
Fri 01:43:59 PM 27.2867 -80.4650 359° North 109 125 4,700 -300 Level Miami Center
Fri 01:44:59 PM 27.3161 -80.4658 359° North 109 125 4,100 -400 Descending Miami Center
Fri 01:45:59 PM 27.3453 -80.4669 358° North 109 125 3,900 1,450 Descending Miami Center
Fri 01:46:59 PM 27.3783 -80.4725 352° North 159 183 7,000 1,550 Climbing Miami Center
Fri 01:47:59 PM 27.4158 -80.4808 349° North 136 157 7,000  Level Miami Center
Fri 01:48:59 PM 27.4553 -80.4892 349° North 136 157 7,000  Level Miami Center
Fri 01:49:59 PM 27.4928 -80.4972 349° North 147 169 7,000  Level Miami Center
Fri 01:50:59 PM 27.5342 -80.5056 350° North 147 169 7,000  Level Miami Center
Fri 01:51:59 PM 27.5800 -80.5164 348° North 147 169 7,000  Level Miami Center
Fri 01:52:59 PM 27.6214 -80.5272 347° North 147 169 7,000  Level Miami Center
Fri 01:53:59 PM 27.6628 -80.5356 350° North 147 169 7,000  Level Miami Center
Fri 01:54:59 PM 27.7003 -80.5436 349° North 147 169 7,000  Level Miami Center
Fri 01:55:59 PM 27.7417 -80.5544 347° North 147 169 7,000  Level Miami Center
Fri 01:56:59 PM 27.7875 -80.5631 351° North 147 169 7,000  Level Miami Center
Fri 01:57:59 PM 27.8311 -80.5739 348° North 147 169 7,000  Level Miami Center
Fri 01:58:59 PM 27.8664 -80.5819 349° North 147 169 7,000  Level Miami Center
Fri 01:59:59 PM 27.9078 -80.5903 350° North 147 169 7,000  Level Miami Center
Fri 02:00:59 PM 27.9514 -80.6011 348° North 147 169 7,000  Level Miami Center
Fri 02:46:58 PM 29.7344 -81.2806 342° North 145 167 7,000  Level Jacksonville Center
Fri 02:47:59 PM 29.7722 -81.2942 343° North 146 168 7,000  Level Jacksonville Center
Fri 02:48:59 PM 29.8100 -81.3056 345° North 145 167 7,000  Level Jacksonville Center
Fri 02:49:55 PM 29.8456 -81.3194 341° North 146 168 7,000  Level Jacksonville Center
Fri 02:50:56 PM 29.8875 -81.3356 342° North 146 168 7,000 49 Level Jacksonville Center
Fri 02:51:57 PM 29.9272 -81.3517 341° North 146 168 7,100  Climbing Jacksonville Center
Fri 02:53:04 PM 29.9672 -81.3678 341° North 145 167 7,000 -49 Descending Jacksonville Center
Fri 02:53:59 PM 30.0050 -81.3792 345° North 148 170 7,000  Level Jacksonville Center
Fri 02:55:01 PM 30.0447 -81.3953 341° North 145 167 7,000  Level Jacksonville Center
Fri 02:56:01 PM 30.0847 -81.4092 343° North 144 166 7,000  Level Jacksonville Center
Fri 02:57:09 PM 30.1244 -81.4278 338° Northwest 142 163 7,000  Level Jacksonville Center
Fri 02:58:09 PM 30.1622 -81.4414 343° North 141 162 7,000  Level Jacksonville Center
Fri 02:59:10 PM 30.2000 -81.4553 342° North 141 162 7,000  Level Jacksonville Center
Fri 03:00:11 PM 30.2378 -81.4692 342° North 140 161 7,000  Level Jacksonville Center
Fri 03:01:13 PM 30.2733 -81.4856 338° Northwest 139 160 7,000  Level Jacksonville Center
Fri 03:02:13 PM 30.3111 -81.5019 339° North 138 159 7,000  Level Jacksonville Center
Fri 03:03:14 PM 30.3489 -81.5108 349° North 143 165 7,000  Level Jacksonville Center
Fri 03:04:15 PM 30.3883 -81.5056 North 142 163 7,000  Level Jacksonville Center
Fri 03:05:10 PM 30.4258 -81.5025 North 143 165 7,000  Level Jacksonville Center
Fri 03:06:17 PM 30.4697 -81.4972 North 144 166 7,000  Level Jacksonville Center
Fri 03:07:18 PM 30.5094 -81.4964 North 145 167 7,000  Level Jacksonville Center
Fri 03:08:19 PM 30.5489 -81.4911 North 146 168 7,000  Level Jacksonville Center
Fri 03:09:20 PM 30.5950 -81.4856 North 149 171 7,000  Level Jacksonville Center
Fri 03:10:22 PM 30.6344 -81.4825 North 147 169 7,000  Level Jacksonville Center
Fri 03:11:49 PM 30.6889 -81.4769 North 151 174 7,000  Level Jacksonville Center
Fri 03:12:49 PM 30.7306 -81.4739 North 151 174 7,000  Level Jacksonville Center
Fri 03:13:49 PM 30.7700 -81.4708 North 146 168 7,000  Level Jacksonville Center
Fri 03:14:49 PM 30.8097 -81.4703 North 140 161 7,000  Level Jacksonville Center
Fri 03:15:49 PM 30.8514 -81.4650 North 140 161 7,000  Level Jacksonville Center
Fri 03:16:49 PM 30.8933 -81.4619 North 140 161 7,000  Level Jacksonville Center
Fri 03:17:49 PM 30.9328 -81.4564 North 140 161 7,000  Level Jacksonville Center
Fri 03:18:49 PM 30.9744 -81.4558 North 140 161 7,000  Level Jacksonville Center
Fri 03:19:49 PM 31.0161 -81.4478 North 140 161 7,000  Level Jacksonville Center
Fri 03:20:49 PM 31.0558 -81.4447 North 140 161 7,000  Level Jacksonville Center
Fri 03:21:49 PM 31.0972 -81.4103 35° Northeast 157 181 7,000  Level Jacksonville Center
Fri 03:22:49 PM 31.1283 -81.3856 34° Northeast 162 186 7,000  Level Jacksonville Center
Fri 03:23:48 PM 31.1656 -81.3581 32° Northeast 152 175 7,000  Level Jacksonville Center
Fri 03:24:49 PM 31.2047 -81.3283 33° Northeast 152 175 7,000  Level Jacksonville Center
Fri 03:25:49 PM 31.2400 -81.3033 31° Northeast 146 168 7,000  Level Jacksonville Center
Fri 03:26:49 PM 31.2731 -81.2786 33° Northeast 146 168 7,000  Level Jacksonville Center
Fri 03:27:49 PM 31.3083 -81.2511 34° Northeast 151 174 7,000  Level Jacksonville Center
Fri 03:28:49 PM 31.3475 -81.2214 33° Northeast 151 174 7,000  Level Jacksonville Center
Fri 03:29:49 PM 31.3828 -81.1964 31° Northeast 146 168 7,000  Level Jacksonville Center
Fri 03:30:49 PM 31.4178 -81.1689 34° Northeast 146 168 7,000  Level Jacksonville Center
Fri 03:31:49 PM 31.4508 -81.1464 30° Northeast 146 168 7,000  Level Jacksonville Center
Fri 03:32:49 PM 31.4861 -81.1189 34° Northeast 146 168 7,000  Level Jacksonville Center
Fri 03:33:49 PM 31.5253 -81.0889 33° Northeast 146 168 7,000  Level Jacksonville Center
Fri 03:34:49 PM 31.5625 -81.0664 27° Northeast 146 168 7,000  Level Jacksonville Center
Fri 03:35:49 PM 31.5997 -81.0436 28° Northeast 146 168 7,000  Level Jacksonville Center
Fri 03:36:49 PM 31.6350 -81.0258 23° Northeast 146 168 7,000  Level Jacksonville Center
Fri 03:37:49 PM 31.6764 -81.0006 27° Northeast 151 174 7,000  Level Jacksonville Center
Fri 03:38:49 PM 31.7178 -80.9803 23° Northeast 151 174 7,000 -30 Level Jacksonville Center
Fri 03:40:00 PM 31.7559 -80.9471 37° Northeast  Level FlightAware Approximate
Fri 03:47:00 PM 31.9811 -80.7503 37° Northeast  Level FlightAware Approximate
Fri 03:48:00 PM 32.0133 -80.7221 37° Northeast  Level FlightAware Approximate
Fri 03:49:00 PM 32.0454 -80.6939 37° Northeast  Level FlightAware Approximate
Fri 03:50:00 PM 32.0776 -80.6657 37° Northeast  Level FlightAware Approximate
Fri 03:51:00 PM 32.1097 -80.6374 37° Northeast  Level FlightAware Approximate
Fri 03:52:00 PM 32.1430 -80.6091 34° Northeast  Level FlightAware Approximate
Fri 03:53:00 PM 32.1763 -80.5828 34° Northeast  Level FlightAware Approximate
Fri 03:54:00 PM 32.2096 -80.5565 34° Northeast  Level FlightAware Approximate
Fri 03:55:00 PM 32.2430 -80.5302 34° Northeast  Level FlightAware Approximate
Fri 03:56:00 PM 32.2763 -80.5039 34° Northeast  Level FlightAware Approximate
Fri 03:57:00 PM 32.3096 -80.4776 34° Northeast  Level FlightAware Approximate
Fri 03:58:00 PM 32.3429 -80.4512 34° Northeast  Level FlightAware Approximate
Fri 03:59:00 PM 32.3762 -80.4248 34° Northeast  Level FlightAware Approximate
Fri 04:00:00 PM 32.4095 -80.3984 34° Northeast  Level FlightAware Approximate
Fri 04:01:00 PM 32.4428 -80.3720 34° Northeast  Level FlightAware Approximate
Fri 04:02:00 PM 32.4761 -80.3456 34° Northeast  Level FlightAware Approximate
Fri 04:03:00 PM 32.5093 -80.3191 34° Northeast  Level FlightAware Approximate
Fri 04:04:00 PM 32.5428 -80.2928 33° Northeast  Level FlightAware Approximate
Fri 04:05:00 PM 32.5765 -80.2672 33° Northeast  Level FlightAware Approximate
Fri 04:06:00 PM 32.6103 -80.2416 33° Northeast  Level FlightAware Approximate
Fri 04:07:00 PM 32.6440 -80.2159 33° Northeast  Level FlightAware Approximate
Fri 04:08:00 PM 32.6778 -80.1903 33° Northeast  Level FlightAware Approximate
Fri 04:09:00 PM 32.7115 -80.1646 33° Northeast  Level FlightAware Approximate
Fri 04:10:00 PM 32.7452 -80.1389 33° Northeast  Level FlightAware Approximate
Fri 04:11:00 PM 32.7789 -80.1131 33° Northeast  Level FlightAware Approximate
Fri 04:12:00 PM 32.8127 -80.0874 33° Northeast  Level FlightAware Approximate
Fri 04:13:00 PM 32.8464 -80.0616 33° Northeast  Level FlightAware Approximate
Fri 04:14:00 PM 32.8801 -80.0358 33° Northeast  Level FlightAware Approximate
Fri 04:15:00 PM 32.9166 -80.0163 23° Northeast  Level FlightAware Approximate
Fri 04:16:00 PM 32.9534 -79.9974 23° Northeast  Level FlightAware Approximate
Fri 04:17:00 PM 32.9902 -79.9785 23° Northeast  Level FlightAware Approximate
Fri 04:18:00 PM 33.0270 -79.9595 23° Northeast  Level FlightAware Approximate
Fri 04:19:00 PM 33.0638 -79.9406 23° Northeast  Level FlightAware Approximate
Fri 04:20:00 PM 33.1006 -79.9216 23° Northeast  Level FlightAware Approximate
Fri 04:21:00 PM 33.1373 -79.9027 23° Northeast  Level FlightAware Approximate
Fri 04:22:00 PM 33.1741 -79.8837 23° Northeast  Level FlightAware Approximate
Fri 04:23:00 PM 33.2109 -79.8647 23° Northeast  Level FlightAware Approximate
Fri 04:24:00 PM 33.2477 -79.8456 23° Northeast  Level FlightAware Approximate
Fri 04:25:00 PM 33.2845 -79.8266 23° Northeast  Level FlightAware Approximate
Fri 04:26:00 PM 33.3212 -79.8075 23° Northeast  Level FlightAware Approximate
Fri 04:27:00 PM 33.3580 -79.7885 23° Northeast  Level FlightAware Approximate
Fri 04:28:00 PM 33.3947 -79.7694 23° Northeast  Level FlightAware Approximate
Fri 04:29:00 PM 33.4317 -79.7509 23° Northeast  Level FlightAware Approximate
Fri 04:30:00 PM 33.4687 -79.7325 23° Northeast  Level FlightAware Approximate
Fri 04:31:00 PM 33.5057 -79.7140 23° Northeast  Level FlightAware Approximate
Fri 04:32:00 PM 33.5427 -79.6956 23° Northeast  Level FlightAware Approximate
Fri 04:33:00 PM 33.5797 -79.6771 23° Northeast  Level FlightAware Approximate
Fri 04:34:00 PM 33.6167 -79.6586 23° Northeast  Level FlightAware Approximate
Fri 04:35:00 PM 33.6537 -79.6401 23° Northeast  Level FlightAware Approximate
Fri 04:36:00 PM 33.6907 -79.6216 23° Northeast  Level FlightAware Approximate
Fri 04:37:00 PM 33.7277 -79.6031 23° Northeast  Level FlightAware Approximate
Fri 04:38:00 PM 33.7646 -79.5845 23° Northeast  Level FlightAware Approximate
Fri 04:39:00 PM 33.8016 -79.5659 23° Northeast  Level FlightAware Approximate
Fri 04:40:00 PM 33.8386 -79.5473 23° Northeast  Level FlightAware Approximate
Fri 04:41:00 PM 33.8755 -79.5285 23° Northeast  Level FlightAware Approximate
Fri 04:42:00 PM 33.9124 -79.5096 23° Northeast  Level FlightAware Approximate
Fri 04:43:00 PM 33.9492 -79.4908 23° Northeast  Level FlightAware Approximate
Fri 04:44:00 PM 33.9861 -79.4719 23° Northeast  Level FlightAware Approximate
Fri 04:45:00 PM 34.0230 -79.4529 23° Northeast  Level FlightAware Approximate
Fri 04:46:00 PM 34.0599 -79.4340 23° Northeast  Level FlightAware Approximate
Fri 04:47:00 PM 34.0967 -79.4151 23° Northeast  Level FlightAware Approximate
Fri 04:48:00 PM 34.1336 -79.3961 23° Northeast  Level FlightAware Approximate
Fri 04:49:00 PM 34.1705 -79.3772 23° Northeast  Level FlightAware Approximate
Fri 04:50:00 PM 34.2074 -79.3582 23° Northeast  Level FlightAware Approximate
Fri 04:51:00 PM 34.2442 -79.3392 23° Northeast  Level FlightAware Approximate
Fri 04:52:00 PM 34.2811 -79.3201 23° Northeast  Level FlightAware Approximate
Fri 04:53:00 PM 34.3179 -79.3011 23° Northeast  Level FlightAware Approximate
Fri 04:54:00 PM 34.3548 -79.2821 23° Northeast  Level FlightAware Approximate
Fri 04:55:00 PM 34.3916 -79.2630 23° Northeast  Level FlightAware Approximate
Fri 04:56:00 PM 34.4284 -79.2437 24° Northeast  Level FlightAware Approximate
Fri 04:57:00 PM 34.4650 -79.2240 24° Northeast  Level FlightAware Approximate
Fri 04:58:00 PM 34.5017 -79.2043 24° Northeast  Level FlightAware Approximate
Fri 04:59:00 PM 34.5383 -79.1846 24° Northeast  Level FlightAware Approximate
Fri 05:00:00 PM 34.5749 -79.1648 24° Northeast  Level FlightAware Approximate
Fri 05:01:00 PM 34.6115 -79.1451 24° Northeast  Level FlightAware Approximate
Fri 05:02:00 PM 34.6483 -79.1258 22° Northeast  Level FlightAware Approximate
Fri 05:03:00 PM 34.6854 -79.1073 22° Northeast  Level FlightAware Approximate
Fri 05:04:00 PM 34.7225 -79.0888 22° Northeast  Level FlightAware Approximate
Fri 05:05:00 PM 34.7595 -79.0703 22° Northeast  Level FlightAware Approximate
Fri 05:06:00 PM 34.7966 -79.0517 22° Northeast  Level FlightAware Approximate
Fri 05:07:00 PM 34.8335 -79.0328 23° Northeast  Level FlightAware Approximate
Fri 05:08:00 PM 34.8704 -79.0138 23° Northeast  Level FlightAware Approximate
Fri 05:09:00 PM 34.9073 -78.9948 23° Northeast  Level FlightAware Approximate
Fri 05:10:00 PM 34.9442 -78.9757 23° Northeast  Level FlightAware Approximate
Fri 05:11:00 PM 34.9812 -78.9567 23° Northeast  Level FlightAware Approximate
Fri 05:12:00 PM 35.0181 -78.9376 23° Northeast  Level FlightAware Approximate
Fri 05:13:00 PM 35.0550 -78.9185 23° Northeast  Level FlightAware Approximate
Fri 05:14:00 PM 35.0919 -78.8994 23° Northeast  Level FlightAware Approximate
Fri 05:15:00 PM 35.1287 -78.8803 23° Northeast  Level FlightAware Approximate
Fri 05:15:40 PM 35.2961 -78.8417 25° Northeast 142 163 4,100  Level Washington Center
Fri 05:16:00 PM 35.1656 -78.8612 23° Northeast  Level FlightAware Approximate
Fri 05:16:29 PM 35.3236 -78.8250 26° Northeast 141 162 3,900  Level Washington Center
Fri 05:17:00 PM 35.2025 -78.8420 23° Northeast  Level FlightAware Approximate
Fri 05:17:23 PM 35.3556 -78.8058 26° Northeast 139 160 3,800  Level Washington Center
Fri 05:18:00 PM 35.2394 -78.8229 23° Northeast  Level FlightAware Approximate
Fri 05:18:23 PM 35.3917 -78.7819 28° Northeast 141 162 3,700  Level Washington Center
Fri 05:19:00 PM 35.2763 -78.8037 23° Northeast  Level FlightAware Approximate
Fri 05:19:24 PM 35.4233 -78.7628 26° Northeast 138 159 3,600  Level Washington Center
Fri 05:20:00 PM 35.3127 -78.7832 25° Northeast  Level FlightAware Approximate
Fri 05:20:25 PM 35.4594 -78.7414 26° Northeast 140 161 3,500  Level Washington Center
Fri 05:21:00 PM 35.3490 -78.7625 25° Northeast  Level FlightAware Approximate
Fri 05:21:14 PM 35.4892 -78.7222 28° Northeast 142 163 3,300  Level Washington Center
Fri 05:22:14 PM 35.5253 -78.6981 29° Northeast 146 168 3,000 -300 Descending Washington Center

Login

Don't have an account? Register now (free) for customized features, flight alerts, and more!